createdAt,value
2022-11-21T00:00:58.995Z,959.77
2022-11-21T00:01:59.004Z,959.77
2022-11-21T00:02:58.901Z,959.77
2022-11-21T00:03:58.856Z,959.72
2022-11-21T00:04:58.807Z,959.73
2022-11-21T00:05:58.757Z,959.79
2022-11-21T00:06:58.860Z,959.79
2022-11-21T00:07:58.678Z,959.75
2022-11-21T00:08:58.616Z,959.81
2022-11-21T00:09:58.566Z,959.83
2022-11-21T00:10:58.518Z,959.91
2022-11-21T00:11:58.473Z,959.86
2022-11-21T00:12:58.425Z,959.94
2022-11-21T00:13:58.557Z,959.89
2022-11-21T00:14:58.329Z,959.80
2022-11-21T00:15:58.282Z,959.82
2022-11-21T00:16:58.239Z,959.96
2022-11-21T00:18:07.557Z,959.79
2022-11-21T00:18:58.140Z,959.82
2022-11-21T00:19:58.123Z,959.77
2022-11-21T00:20:58.046Z,959.75
2022-11-21T00:21:57.997Z,959.79
2022-11-21T00:22:57.952Z,959.76
2022-11-21T00:23:57.905Z,959.70
2022-11-21T00:24:57.854Z,959.65
2022-11-21T00:25:57.824Z,959.59
2022-11-21T00:26:57.762Z,959.65
2022-11-21T00:27:57.716Z,959.57
2022-11-21T00:28:57.670Z,959.52
2022-11-21T00:29:57.621Z,959.54
2022-11-21T00:30:57.571Z,959.47
2022-11-21T00:31:57.561Z,959.56
2022-11-21T00:32:57.475Z,959.53
2022-11-21T00:33:57.429Z,959.54
2022-11-21T00:34:57.389Z,959.55
2022-11-21T00:35:57.334Z,959.54
2022-11-21T00:36:57.287Z,959.50
2022-11-21T00:37:57.267Z,959.52
2022-11-21T00:38:57.194Z,959.52
2022-11-21T00:39:57.156Z,959.45
2022-11-21T00:40:57.099Z,959.49
2022-11-21T00:41:57.054Z,959.50
2022-11-21T00:42:57.003Z,959.46
2022-11-21T00:43:56.979Z,959.47
2022-11-21T00:44:56.936Z,959.42
2022-11-21T00:45:56.862Z,959.44
2022-11-21T00:46:56.824Z,959.47
2022-11-21T00:47:56.768Z,959.36
2022-11-21T00:48:56.728Z,959.42
2022-11-21T00:49:56.717Z,959.33
2022-11-21T00:50:56.633Z,959.29
2022-11-21T00:51:56.582Z,959.26
2022-11-21T00:52:56.535Z,959.23
2022-11-21T00:53:56.485Z,959.25
2022-11-21T00:54:56.441Z,959.19
2022-11-21T00:55:56.401Z,959.14
2022-11-21T00:56:56.351Z,959.15
2022-11-21T00:57:56.298Z,959.03
2022-11-21T00:58:56.274Z,959.05
2022-11-21T00:59:56.199Z,959.01
2022-11-21T01:00:56.232Z,959.06
2022-11-21T01:01:56.114Z,959.03
2022-11-21T01:02:56.058Z,959.00
2022-11-21T01:03:56.023Z,958.95
2022-11-21T01:04:55.984Z,958.99
2022-11-21T01:05:55.921Z,958.87
2022-11-21T01:06:55.874Z,958.90
2022-11-21T01:07:55.830Z,958.96
2022-11-21T01:08:55.779Z,959.00
2022-11-21T01:09:55.735Z,958.83
2022-11-21T01:10:55.704Z,958.95
2022-11-21T01:11:55.642Z,958.98
2022-11-21T01:12:55.590Z,959.01
2022-11-21T01:13:55.542Z,959.03
2022-11-21T01:14:55.499Z,959.02
2022-11-21T01:15:55.449Z,958.98
2022-11-21T01:16:55.443Z,958.93
2022-11-21T01:17:55.361Z,958.90
2022-11-21T01:18:55.304Z,958.79
2022-11-21T01:19:55.298Z,958.63
2022-11-21T01:20:55.212Z,958.61
2022-11-21T01:21:55.170Z,958.54
2022-11-21T01:22:55.148Z,958.48
2022-11-21T01:23:55.071Z,958.29
2022-11-21T01:24:55.028Z,958.30
2022-11-21T01:25:54.978Z,958.29
2022-11-21T01:26:54.930Z,958.44
2022-11-21T01:27:54.885Z,958.42
2022-11-21T01:28:54.870Z,958.41
2022-11-21T01:29:54.795Z,958.38
2022-11-21T01:30:54.742Z,958.34
2022-11-21T01:31:54.698Z,958.34
2022-11-21T01:32:54.646Z,958.41
2022-11-21T01:33:54.607Z,958.44
2022-11-21T01:34:54.602Z,958.51
2022-11-21T01:35:54.507Z,958.52
2022-11-21T01:36:54.459Z,958.53
2022-11-21T01:37:54.409Z,958.59
2022-11-21T01:38:54.371Z,958.42
2022-11-21T01:39:54.319Z,958.45
2022-11-21T01:40:54.308Z,958.45
2022-11-21T01:41:54.228Z,958.41
2022-11-21T01:42:54.178Z,958.36
2022-11-21T01:43:54.135Z,958.31
2022-11-21T01:44:54.081Z,958.27
2022-11-21T01:45:54.033Z,958.17
2022-11-21T01:46:54.011Z,958.18
2022-11-21T01:47:53.937Z,958.28
2022-11-21T01:48:53.897Z,958.26
2022-11-21T01:49:53.843Z,958.25
2022-11-21T01:50:53.797Z,958.29
2022-11-21T01:51:53.753Z,958.30
2022-11-21T01:52:53.724Z,958.19
2022-11-21T01:53:53.653Z,958.26
2022-11-21T01:54:53.614Z,958.30
2022-11-21T01:55:53.566Z,958.30
2022-11-21T01:56:53.511Z,958.34
2022-11-21T01:57:53.473Z,958.29
2022-11-21T01:58:53.436Z,958.30
2022-11-21T01:59:53.384Z,958.31
2022-11-21T02:00:53.349Z,958.22
2022-11-21T02:01:53.281Z,958.23
2022-11-21T02:02:53.233Z,958.31
2022-11-21T02:03:53.188Z,958.29
2022-11-21T02:04:53.243Z,958.32
2022-11-21T02:05:53.092Z,958.27
2022-11-21T02:06:53.045Z,958.24
2022-11-21T02:07:52.997Z,958.24
2022-11-21T02:08:52.951Z,958.26
2022-11-21T02:09:52.902Z,958.29
2022-11-21T02:10:52.898Z,958.23
2022-11-21T02:11:52.815Z,958.23
2022-11-21T02:12:52.759Z,958.31
2022-11-21T02:13:52.714Z,958.17
2022-11-21T02:14:52.670Z,958.07
2022-11-21T02:15:52.623Z,958.17
2022-11-21T02:16:52.600Z,958.16
2022-11-21T02:17:52.531Z,958.13
2022-11-21T02:18:52.479Z,958.25
2022-11-21T02:19:52.432Z,958.15
2022-11-21T02:20:52.385Z,958.15
2022-11-21T02:21:52.339Z,958.04
2022-11-21T02:22:52.305Z,958.08
2022-11-21T02:23:56.334Z,958.06
2022-11-21T02:24:52.197Z,958.05
2022-11-21T02:25:52.148Z,958.04
2022-11-21T02:26:52.102Z,958.06
2022-11-21T02:27:52.054Z,958.03
2022-11-21T02:28:52.039Z,958.01
2022-11-21T02:29:51.959Z,957.95
2022-11-21T02:30:51.916Z,958.07
2022-11-21T02:31:51.872Z,958.08
2022-11-21T02:32:51.820Z,957.99
2022-11-21T02:33:51.775Z,957.96
2022-11-21T02:34:51.766Z,957.96
2022-11-21T02:35:51.680Z,957.87
2022-11-21T02:36:51.629Z,957.97
2022-11-21T02:37:51.584Z,957.86
2022-11-21T02:38:51.537Z,957.93
2022-11-21T02:39:51.488Z,957.94
2022-11-21T02:40:51.464Z,957.97
2022-11-21T02:41:51.395Z,957.85
2022-11-21T02:42:52.807Z,957.95
2022-11-21T02:43:51.301Z,957.97
2022-11-21T02:44:51.257Z,957.99
2022-11-21T02:45:51.205Z,957.97
2022-11-21T02:46:51.335Z,957.99
2022-11-21T02:47:51.114Z,958.11
2022-11-21T02:48:51.067Z,958.08
2022-11-21T02:49:51.020Z,958.08
2022-11-21T02:50:50.971Z,958.19
2022-11-21T02:51:50.928Z,958.20
2022-11-21T02:52:50.932Z,958.23
2022-11-21T02:53:50.830Z,958.23
2022-11-21T02:54:50.780Z,958.15
2022-11-21T02:55:50.736Z,958.16
2022-11-21T02:56:50.690Z,958.17
2022-11-21T02:57:50.641Z,958.10
2022-11-21T02:58:50.613Z,958.09
2022-11-21T02:59:50.547Z,958.08
2022-11-21T03:00:50.613Z,958.06
2022-11-21T03:01:50.454Z,958.01
2022-11-21T03:02:50.411Z,958.03
2022-11-21T03:03:50.357Z,958.02
2022-11-21T03:04:50.332Z,957.96
2022-11-21T03:05:50.268Z,958.05
2022-11-21T03:06:50.213Z,958.09
2022-11-21T03:07:50.169Z,958.10
2022-11-21T03:08:50.125Z,958.00
2022-11-21T03:09:50.078Z,957.93
2022-11-21T03:10:50.048Z,957.95
2022-11-21T03:11:49.979Z,957.91
2022-11-21T03:12:49.932Z,957.94
2022-11-21T03:13:49.893Z,957.91
2022-11-21T03:14:49.837Z,957.82
2022-11-21T03:15:49.795Z,957.77
2022-11-21T03:16:49.756Z,957.78
2022-11-21T03:17:49.702Z,957.89
2022-11-21T03:18:49.650Z,957.91
2022-11-21T03:19:49.602Z,957.87
2022-11-21T03:20:49.560Z,957.88
2022-11-21T03:21:49.509Z,957.86
2022-11-21T03:22:49.619Z,957.92
2022-11-21T03:23:49.417Z,957.84
2022-11-21T03:24:49.369Z,957.93
2022-11-21T03:25:49.348Z,957.79
2022-11-21T03:26:49.277Z,957.77
2022-11-21T03:27:49.255Z,957.78
2022-11-21T03:28:49.180Z,957.77
2022-11-21T03:29:49.172Z,957.70
2022-11-21T03:30:49.083Z,957.66
2022-11-21T03:31:49.036Z,957.62
2022-11-21T03:32:48.992Z,957.64
2022-11-21T03:33:48.948Z,957.68
2022-11-21T03:34:48.894Z,957.65
2022-11-21T03:35:48.884Z,957.70
2022-11-21T03:36:48.806Z,957.67
2022-11-21T03:37:48.754Z,957.71
2022-11-21T03:38:48.714Z,957.74
2022-11-21T03:39:48.661Z,957.74
2022-11-21T03:40:48.618Z,957.84
2022-11-21T03:41:48.593Z,957.83
2022-11-21T03:42:48.520Z,957.84
2022-11-21T03:43:48.506Z,957.95
2022-11-21T03:44:48.422Z,957.94
2022-11-21T03:45:48.378Z,957.92
2022-11-21T03:46:48.329Z,957.97
2022-11-21T03:47:48.282Z,957.86
2022-11-21T03:48:48.238Z,957.90
2022-11-21T03:49:48.206Z,957.86
2022-11-21T03:50:48.142Z,957.87
2022-11-21T03:51:48.095Z,957.88
2022-11-21T03:52:48.044Z,957.90
2022-11-21T03:53:48.001Z,957.93
2022-11-21T03:54:47.948Z,957.82
2022-11-21T03:55:47.922Z,957.80
2022-11-21T03:56:47.859Z,957.80
2022-11-21T03:57:47.810Z,957.78
2022-11-21T03:58:47.758Z,957.85
2022-11-21T03:59:47.712Z,957.84
2022-11-21T04:00:47.667Z,957.84
2022-11-21T04:01:47.671Z,957.86
2022-11-21T04:02:47.570Z,957.95
2022-11-21T04:03:47.525Z,957.93
2022-11-21T04:04:47.476Z,957.80
2022-11-21T04:05:47.434Z,957.73
2022-11-21T04:06:47.386Z,957.81
2022-11-21T04:07:47.397Z,957.76
2022-11-21T04:08:47.285Z,957.82
2022-11-21T04:09:47.244Z,957.79
2022-11-21T04:10:47.196Z,957.78
2022-11-21T04:11:47.142Z,957.77
2022-11-21T04:12:47.103Z,957.91
2022-11-21T04:13:47.065Z,957.89
2022-11-21T04:14:47.008Z,957.81
2022-11-21T04:15:46.963Z,957.90
2022-11-21T04:16:46.912Z,957.92
2022-11-21T04:17:46.858Z,957.86
2022-11-21T04:18:46.825Z,957.93
2022-11-21T04:19:46.788Z,957.88
2022-11-21T04:20:46.722Z,957.87
2022-11-21T04:21:46.670Z,957.91
2022-11-21T04:22:46.630Z,957.76
2022-11-21T04:23:46.576Z,957.85
2022-11-21T04:24:46.535Z,957.78
2022-11-21T04:25:46.526Z,957.92
2022-11-21T04:26:46.438Z,957.82
2022-11-21T04:27:46.392Z,957.75
2022-11-21T04:28:46.340Z,957.74
2022-11-21T04:29:46.296Z,957.72
2022-11-21T04:30:46.243Z,957.74
2022-11-21T04:31:46.215Z,957.79
2022-11-21T04:32:46.154Z,957.74
2022-11-21T04:33:46.104Z,957.69
2022-11-21T04:34:46.058Z,957.71
2022-11-21T04:35:46.008Z,957.69
2022-11-21T04:36:46.018Z,957.78
2022-11-21T04:37:45.936Z,957.75
2022-11-21T04:38:45.871Z,957.72
2022-11-21T04:39:45.822Z,957.72
2022-11-21T04:40:45.777Z,957.78
2022-11-21T04:41:45.724Z,957.67
2022-11-21T04:42:45.679Z,957.62
2022-11-21T04:43:45.652Z,957.71
2022-11-21T04:44:45.588Z,957.63
2022-11-21T04:45:45.536Z,957.63
2022-11-21T04:46:45.494Z,957.59
2022-11-21T04:47:45.438Z,957.75
2022-11-21T04:48:45.395Z,957.67
2022-11-21T04:49:45.391Z,957.65
2022-11-21T04:50:45.304Z,957.69
2022-11-21T04:51:45.252Z,957.79
2022-11-21T04:52:45.211Z,957.79
2022-11-21T04:53:45.157Z,957.70
2022-11-21T04:54:45.108Z,957.68
2022-11-21T04:55:45.114Z,957.65
2022-11-21T04:56:45.016Z,957.63
2022-11-21T04:57:44.963Z,957.67
2022-11-21T04:58:45.028Z,957.65
2022-11-21T04:59:44.872Z,957.72
2022-11-21T05:00:44.833Z,957.66
2022-11-21T05:01:44.831Z,957.55
2022-11-21T05:02:44.733Z,957.43
2022-11-21T05:03:44.685Z,957.46
2022-11-21T05:04:44.639Z,957.48
2022-11-21T05:05:44.590Z,957.52
2022-11-21T05:06:44.542Z,957.39
2022-11-21T05:07:44.513Z,957.35
2022-11-21T05:08:48.985Z,957.37
2022-11-21T05:09:44.407Z,957.27
2022-11-21T05:10:44.355Z,957.18
2022-11-21T05:11:44.309Z,957.24
2022-11-21T05:12:44.259Z,957.16
2022-11-21T05:13:44.228Z,957.29
2022-11-21T05:14:44.162Z,957.18
2022-11-21T05:15:44.119Z,957.22
2022-11-21T05:16:44.067Z,957.20
2022-11-21T05:17:44.022Z,957.17
2022-11-21T05:18:43.973Z,957.18
2022-11-21T05:19:43.951Z,957.31
2022-11-21T05:20:43.899Z,957.26
2022-11-21T05:21:43.832Z,957.31
2022-11-21T05:22:43.785Z,957.30
2022-11-21T05:23:43.741Z,957.38
2022-11-21T05:24:43.688Z,957.39
2022-11-21T05:25:43.664Z,957.23
2022-11-21T05:26:43.596Z,957.33
2022-11-21T05:27:43.556Z,957.26
2022-11-21T05:28:43.501Z,957.24
2022-11-21T05:29:43.455Z,957.27
2022-11-21T05:30:43.405Z,957.26
2022-11-21T05:31:43.527Z,957.24
2022-11-21T05:32:43.317Z,957.33
2022-11-21T05:33:43.262Z,957.25
2022-11-21T05:34:43.211Z,957.28
2022-11-21T05:35:43.748Z,957.31
2022-11-21T05:36:43.117Z,957.26
2022-11-21T05:37:43.098Z,957.23
2022-11-21T05:38:43.027Z,957.28
2022-11-21T05:39:42.978Z,957.25
2022-11-21T05:40:42.933Z,957.27
2022-11-21T05:41:42.887Z,957.31
2022-11-21T05:42:42.835Z,957.32
2022-11-21T05:43:42.801Z,957.33
2022-11-21T05:44:42.744Z,957.28
2022-11-21T05:45:42.700Z,957.40
2022-11-21T05:46:42.681Z,957.40
2022-11-21T05:47:42.608Z,957.40
2022-11-21T05:48:42.552Z,957.41
2022-11-21T05:49:42.506Z,957.41
2022-11-21T05:50:42.456Z,957.41
2022-11-21T05:51:42.412Z,957.41
2022-11-21T05:52:42.383Z,957.42
2022-11-21T05:53:42.318Z,957.42
2022-11-21T05:54:45.995Z,957.45
2022-11-21T05:55:42.225Z,957.45
2022-11-21T05:56:42.177Z,957.50
2022-11-21T05:57:42.132Z,957.48
2022-11-21T05:58:42.112Z,957.50
2022-11-21T05:59:42.036Z,957.51
2022-11-21T06:03:48.329Z,957.43
2022-11-21T06:04:48.083Z,957.44
2022-11-21T06:05:47.887Z,957.45
2022-11-21T06:06:47.914Z,957.48
2022-11-21T06:07:48.133Z,957.43
2022-11-21T06:08:47.783Z,957.45
2022-11-21T06:09:47.970Z,957.43
2022-11-21T06:10:47.653Z,957.43
2022-11-21T06:11:47.672Z,957.42
2022-11-21T06:12:47.946Z,957.47
2022-11-21T06:13:47.671Z,957.42
2022-11-21T06:14:47.774Z,957.52
2022-11-21T06:15:47.696Z,957.42
2022-11-21T06:16:48.017Z,957.39
2022-11-21T06:17:47.408Z,957.39
2022-11-21T06:18:47.558Z,957.39
2022-11-21T06:19:47.342Z,957.39
2022-11-21T06:20:47.721Z,957.33
2022-11-21T06:21:47.202Z,957.27
2022-11-21T06:22:47.117Z,957.29
2022-11-21T06:23:47.022Z,957.23
2022-11-21T06:24:47.371Z,957.22
2022-11-21T06:25:46.949Z,957.27
2022-11-21T06:26:48.090Z,957.27
2022-11-21T06:27:47.263Z,957.33
2022-11-21T06:28:46.788Z,957.29
2022-11-21T06:29:46.739Z,957.25
2022-11-21T06:30:46.939Z,957.26
2022-11-21T06:31:46.743Z,957.22
2022-11-21T06:32:46.743Z,957.19
2022-11-21T06:33:46.616Z,957.20
2022-11-21T06:34:46.503Z,957.20
2022-11-21T06:35:46.456Z,957.17
2022-11-21T06:36:47.684Z,957.20
2022-11-21T06:37:50.751Z,957.13
2022-11-21T06:38:46.540Z,957.10
2022-11-21T06:39:46.401Z,957.09
2022-11-21T06:40:46.312Z,957.06
2022-11-21T06:41:46.405Z,957.05
2022-11-21T06:42:46.137Z,957.06
2022-11-21T06:43:46.501Z,957.05
2022-11-21T06:44:46.163Z,957.03
2022-11-21T06:45:46.003Z,957.08
2022-11-21T06:46:50.788Z,957.15
2022-11-21T06:47:45.985Z,957.10
2022-11-21T06:48:45.910Z,957.14
2022-11-21T06:49:46.040Z,957.15
2022-11-21T06:50:45.749Z,957.07
2022-11-21T06:51:45.867Z,957.14
2022-11-21T06:52:45.716Z,957.10
2022-11-21T06:53:46.019Z,957.06
2022-11-21T06:54:45.574Z,957.05
2022-11-21T06:55:45.692Z,957.06
2022-11-21T06:56:45.542Z,957.00
2022-11-21T06:57:45.457Z,956.93
2022-11-21T06:58:45.390Z,956.99
2022-11-21T06:59:45.494Z,956.94
2022-11-21T07:00:45.402Z,956.91
2022-11-21T07:01:45.562Z,956.96
2022-11-21T07:02:45.193Z,957.03
2022-11-21T07:03:45.337Z,956.93
2022-11-21T07:04:45.256Z,957.00
2022-11-21T07:05:45.331Z,957.10
2022-11-21T07:06:45.096Z,957.00
2022-11-21T07:07:45.122Z,956.94
2022-11-21T07:08:44.938Z,957.00
2022-11-21T07:09:45.205Z,957.01
2022-11-21T07:11:03.451Z,957.03
2022-11-21T07:11:45.007Z,957.04
2022-11-21T07:12:44.723Z,957.00
2022-11-21T07:13:45.043Z,957.11
2022-11-21T07:14:44.702Z,957.12
2022-11-21T07:15:44.601Z,957.11
2022-11-21T07:16:44.990Z,957.10
2022-11-21T07:17:44.484Z,957.07
2022-11-21T07:18:44.646Z,957.12
2022-11-21T07:19:44.526Z,956.97
2022-11-21T07:20:44.692Z,957.00
2022-11-21T07:21:44.439Z,957.01
2022-11-21T07:22:44.632Z,956.99
2022-11-21T07:23:44.250Z,957.04
2022-11-21T07:24:44.980Z,956.99
2022-11-21T07:25:44.286Z,956.94
2022-11-21T07:26:44.259Z,957.00
2022-11-21T07:27:44.046Z,956.92
2022-11-21T07:28:44.376Z,956.88
2022-11-21T07:29:44.482Z,956.82
2022-11-21T07:30:44.253Z,956.82
2022-11-21T07:31:43.818Z,956.78
2022-11-21T07:32:43.777Z,956.85
2022-11-21T07:33:43.917Z,956.78
2022-11-21T07:34:43.872Z,956.74
2022-11-21T07:35:43.626Z,956.67
2022-11-21T07:36:43.682Z,956.78
2022-11-21T07:37:43.531Z,956.71
2022-11-21T07:38:43.486Z,956.65
2022-11-21T07:39:43.462Z,956.72
2022-11-21T07:40:43.503Z,956.80
2022-11-21T07:41:43.347Z,956.73
2022-11-21T07:42:44.545Z,956.70
2022-11-21T07:43:43.249Z,956.72
2022-11-21T07:44:43.205Z,956.70
2022-11-21T07:45:43.543Z,956.72
2022-11-21T07:46:43.107Z,956.64
2022-11-21T07:47:43.352Z,956.59
2022-11-21T07:48:43.011Z,956.59
2022-11-21T07:49:42.967Z,956.53
2022-11-21T07:50:42.959Z,956.50
2022-11-21T07:51:43.176Z,956.49
2022-11-21T07:52:42.824Z,956.51
2022-11-21T07:53:43.014Z,956.50
2022-11-21T07:54:42.727Z,956.47
2022-11-21T07:55:42.685Z,956.54
2022-11-21T07:56:42.805Z,956.51
2022-11-21T07:57:42.868Z,956.52
2022-11-21T07:58:42.817Z,956.49
2022-11-21T07:59:42.493Z,956.51
2022-11-21T08:00:42.451Z,956.51
2022-11-21T08:01:45.450Z,956.53
2022-11-21T08:02:42.650Z,956.52
2022-11-21T08:03:42.348Z,956.52
2022-11-21T08:04:43.481Z,956.56
2022-11-21T08:05:42.214Z,956.54
2022-11-21T08:06:42.169Z,956.51
2022-11-21T08:07:42.177Z,956.43
2022-11-21T08:08:42.280Z,956.43
2022-11-21T08:09:42.255Z,956.42
2022-11-21T08:10:42.194Z,956.41
2022-11-21T08:11:41.940Z,956.43
2022-11-21T08:12:43.031Z,956.52
2022-11-21T08:13:41.839Z,956.47
2022-11-21T08:14:41.948Z,956.47
2022-11-21T08:15:41.936Z,956.51
2022-11-21T08:16:41.841Z,956.49
2022-11-21T08:17:41.840Z,956.44
2022-11-21T08:18:41.599Z,956.45
2022-11-21T08:19:41.852Z,956.49
2022-11-21T08:20:41.512Z,956.51
2022-11-21T08:21:41.882Z,956.45
2022-11-21T08:22:41.417Z,956.41
2022-11-21T08:23:41.388Z,956.44
2022-11-21T08:24:41.481Z,956.37
2022-11-21T08:25:41.288Z,956.37
2022-11-21T08:26:42.534Z,956.38
2022-11-21T08:27:41.209Z,956.37
2022-11-21T08:28:41.151Z,956.34
2022-11-21T08:29:41.087Z,956.34
2022-11-21T08:30:41.319Z,956.34
2022-11-21T08:31:41.004Z,956.34
2022-11-21T08:32:41.134Z,956.31
2022-11-21T08:33:41.211Z,956.32
2022-11-21T08:34:41.144Z,956.27
2022-11-21T08:35:40.811Z,956.22
2022-11-21T08:36:40.959Z,956.24
2022-11-21T08:37:40.722Z,956.21
2022-11-21T08:38:40.970Z,956.16
2022-11-21T08:39:40.667Z,956.18
2022-11-21T08:40:40.773Z,956.15
2022-11-21T08:41:40.528Z,956.15
2022-11-21T08:42:40.792Z,956.15
2022-11-21T08:43:40.442Z,956.18
2022-11-21T08:44:40.609Z,956.15
2022-11-21T08:45:40.651Z,956.14
2022-11-21T08:46:40.472Z,956.13
2022-11-21T08:47:40.246Z,956.10
2022-11-21T08:48:40.469Z,956.09
2022-11-21T08:49:40.280Z,956.13
2022-11-21T08:50:40.119Z,956.04
2022-11-21T08:51:40.244Z,956.03
2022-11-21T08:52:40.026Z,956.00
2022-11-21T08:53:40.256Z,956.00
2022-11-21T08:54:39.946Z,956.01
2022-11-21T08:55:39.882Z,956.01
2022-11-21T08:56:39.834Z,955.97
2022-11-21T08:57:40.296Z,955.98
2022-11-21T08:58:39.764Z,955.95
2022-11-21T08:59:39.899Z,956.00
2022-11-21T09:00:39.651Z,955.93
2022-11-21T09:01:39.642Z,955.95
2022-11-21T09:02:39.715Z,955.85
2022-11-21T09:03:39.536Z,955.87
2022-11-21T09:04:39.735Z,955.89
2022-11-21T09:05:39.423Z,955.79
2022-11-21T09:06:39.378Z,955.79
2022-11-21T09:07:39.351Z,955.80
2022-11-21T09:08:40.578Z,955.82
2022-11-21T09:09:39.411Z,955.80
2022-11-21T09:10:39.413Z,955.73
2022-11-21T09:11:39.135Z,955.70
2022-11-21T09:12:39.092Z,955.70
2022-11-21T09:13:39.173Z,955.69
2022-11-21T09:14:38.997Z,955.68
2022-11-21T09:15:39.187Z,955.62
2022-11-21T09:16:38.914Z,955.58
2022-11-21T09:17:38.865Z,955.56
2022-11-21T09:18:38.819Z,955.58
2022-11-21T09:19:38.923Z,955.60
2022-11-21T09:20:38.786Z,955.60
2022-11-21T09:21:39.028Z,955.60
2022-11-21T09:22:38.632Z,955.60
2022-11-21T09:23:38.585Z,955.57
2022-11-21T09:24:38.847Z,955.62
2022-11-21T09:25:38.491Z,955.63
2022-11-21T09:26:39.683Z,955.66
2022-11-21T09:27:38.431Z,955.67
2022-11-21T09:28:38.358Z,955.64
2022-11-21T09:29:38.301Z,955.63
2022-11-21T09:30:38.483Z,955.58
2022-11-21T09:31:38.257Z,955.53
2022-11-21T09:32:38.547Z,955.47
2022-11-21T09:33:38.421Z,955.48
2022-11-21T09:34:38.074Z,955.38
2022-11-21T09:35:38.357Z,955.38
2022-11-21T09:36:37.987Z,955.41
2022-11-21T09:37:38.272Z,955.40
2022-11-21T09:38:38.028Z,955.37
2022-11-21T09:39:37.880Z,955.35
2022-11-21T09:40:37.906Z,955.33
2022-11-21T09:41:38.001Z,955.26
2022-11-21T09:42:37.805Z,955.16
2022-11-21T09:43:37.826Z,955.15
2022-11-21T09:44:37.706Z,955.18
2022-11-21T09:45:37.941Z,955.14
2022-11-21T09:46:37.776Z,955.12
2022-11-21T09:47:37.493Z,955.15
2022-11-21T09:48:37.634Z,955.16
2022-11-21T09:49:37.516Z,955.16
2022-11-21T09:50:37.677Z,955.10
2022-11-21T09:51:37.369Z,955.10
2022-11-21T09:52:37.307Z,955.09
2022-11-21T09:53:37.260Z,955.04
2022-11-21T09:54:37.332Z,955.02
2022-11-21T09:55:37.146Z,955.10
2022-11-21T09:56:37.140Z,955.06
2022-11-21T09:57:37.190Z,955.11
2022-11-21T09:58:37.143Z,955.04
2022-11-21T09:59:37.205Z,955.06
2022-11-21T10:00:37.052Z,955.05
2022-11-21T10:01:36.952Z,954.96
2022-11-21T10:02:36.994Z,955.02
2022-11-21T10:03:36.812Z,954.99
2022-11-21T10:04:36.827Z,955.03
2022-11-21T10:05:36.716Z,955.01
2022-11-21T10:06:36.905Z,954.93
2022-11-21T10:07:36.654Z,954.93
2022-11-21T10:08:36.629Z,954.91
2022-11-21T10:09:37.685Z,954.88
2022-11-21T10:10:36.731Z,954.80
2022-11-21T10:11:36.629Z,954.78
2022-11-21T10:12:36.631Z,954.75
2022-11-21T10:13:36.460Z,954.71
2022-11-21T10:14:36.345Z,954.71
2022-11-21T10:15:36.320Z,954.70
2022-11-21T10:16:41.705Z,954.66
2022-11-21T10:17:36.218Z,954.63
2022-11-21T10:18:36.268Z,954.61
2022-11-21T10:19:36.264Z,954.61
2022-11-21T10:20:36.098Z,954.58
2022-11-21T10:21:36.140Z,954.58
2022-11-21T10:22:36.234Z,954.61
2022-11-21T10:23:35.992Z,954.58
2022-11-21T10:24:36.111Z,954.56
2022-11-21T10:25:35.899Z,954.50
2022-11-21T10:26:35.848Z,954.50
2022-11-21T10:27:35.858Z,954.47
2022-11-21T10:28:36.046Z,954.38
2022-11-21T10:29:35.790Z,954.28
2022-11-21T10:30:35.756Z,954.35
2022-11-21T10:31:35.736Z,954.30
2022-11-21T10:32:35.640Z,954.31
2022-11-21T10:33:35.762Z,954.31
2022-11-21T10:34:35.612Z,954.23
2022-11-21T10:35:35.570Z,954.23
2022-11-21T10:36:35.488Z,954.19
2022-11-21T10:37:36.648Z,954.13
2022-11-21T10:38:35.389Z,954.08
2022-11-21T10:39:35.516Z,954.04
2022-11-21T10:40:35.283Z,953.99
2022-11-21T10:41:35.618Z,953.96
2022-11-21T10:42:35.244Z,953.90
2022-11-21T10:43:35.143Z,953.89
2022-11-21T10:44:35.252Z,953.88
2022-11-21T10:45:35.256Z,953.79
2022-11-21T10:46:35.096Z,953.82
2022-11-21T10:47:35.248Z,953.80
2022-11-21T10:48:34.978Z,953.75
2022-11-21T10:49:34.892Z,953.70
2022-11-21T10:50:34.955Z,953.71
2022-11-21T10:51:35.522Z,953.72
2022-11-21T10:52:34.771Z,953.69
2022-11-21T10:53:35.109Z,953.66
2022-11-21T10:54:34.687Z,953.64
2022-11-21T10:55:34.665Z,953.58
2022-11-21T10:56:34.803Z,953.51
2022-11-21T10:57:34.640Z,953.54
2022-11-21T10:58:34.713Z,953.53
2022-11-21T10:59:34.554Z,953.52
2022-11-21T11:00:34.624Z,953.48
2022-11-21T11:01:34.474Z,953.45
2022-11-21T11:02:34.563Z,953.44
2022-11-21T11:03:34.316Z,953.43
2022-11-21T11:04:42.886Z,953.44
2022-11-21T11:05:34.400Z,953.41
2022-11-21T11:06:34.244Z,953.41
2022-11-21T11:07:34.226Z,953.33
2022-11-21T11:08:35.354Z,953.31
2022-11-21T11:09:34.080Z,953.34
2022-11-21T11:10:34.202Z,953.31
2022-11-21T11:11:34.003Z,953.29
2022-11-21T11:12:33.951Z,953.26
2022-11-21T11:13:50.666Z,953.22
2022-11-21T11:14:33.872Z,953.20
2022-11-21T11:15:34.022Z,953.15
2022-11-21T11:16:37.316Z,953.06
2022-11-21T11:17:33.833Z,953.01
2022-11-21T11:18:33.749Z,952.99
2022-11-21T11:19:40.116Z,952.94
2022-11-21T11:20:33.633Z,952.89
2022-11-21T11:21:33.695Z,952.89
2022-11-21T11:22:33.557Z,952.88
2022-11-21T11:23:33.511Z,952.87
2022-11-21T11:24:33.732Z,952.82
2022-11-21T11:25:33.487Z,952.78
2022-11-21T11:26:33.488Z,952.74
2022-11-21T11:27:33.547Z,952.75
2022-11-21T11:28:33.315Z,952.71
2022-11-21T11:29:33.271Z,952.73
2022-11-21T11:30:33.318Z,952.74
2022-11-21T11:31:33.195Z,952.73
2022-11-21T11:32:33.336Z,952.67
2022-11-21T11:33:33.113Z,952.65
2022-11-21T11:34:33.137Z,952.64
2022-11-21T11:35:33.114Z,952.60
2022-11-21T11:36:34.378Z,952.55
2022-11-21T11:37:38.726Z,952.59
2022-11-21T11:38:32.960Z,952.54
2022-11-21T11:39:32.870Z,952.43
2022-11-21T11:40:32.831Z,952.44
2022-11-21T11:41:32.886Z,952.40
2022-11-21T11:42:33.018Z,952.38
2022-11-21T11:43:32.716Z,952.34
2022-11-21T11:44:32.812Z,952.33
2022-11-21T11:45:32.969Z,952.28
2022-11-21T11:46:32.600Z,952.26
2022-11-21T11:47:32.747Z,952.29
2022-11-21T11:48:45.030Z,952.22
2022-11-21T11:49:32.538Z,952.20
2022-11-21T11:50:32.786Z,952.17
2022-11-21T11:51:32.419Z,952.14
2022-11-21T11:52:33.480Z,952.09
2022-11-21T11:53:32.523Z,952.06
2022-11-21T11:54:32.667Z,952.04
2022-11-21T11:55:32.288Z,952.00
2022-11-21T11:56:32.403Z,952.04
2022-11-21T11:57:32.281Z,952.00
2022-11-21T11:58:32.123Z,952.00
2022-11-21T11:59:32.369Z,951.99
2022-11-21T12:00:32.096Z,951.88
2022-11-21T12:01:32.187Z,951.86
2022-11-21T12:02:32.065Z,951.79
2022-11-21T12:03:31.927Z,951.77
2022-11-21T12:04:32.135Z,951.79
2022-11-21T12:05:31.863Z,951.75
2022-11-21T12:07:18.075Z,951.71
2022-11-21T12:08:33.157Z,951.70
2022-11-21T12:08:47.570Z,951.66
2022-11-21T12:09:31.977Z,951.64
2022-11-21T12:10:31.762Z,951.65
2022-11-21T12:11:31.610Z,951.59
2022-11-21T12:12:31.775Z,951.58
2022-11-21T12:13:31.637Z,951.53
2022-11-21T12:14:31.497Z,951.52
2022-11-21T12:15:31.483Z,951.46
2022-11-21T12:16:31.651Z,951.42
2022-11-21T12:17:31.456Z,951.40
2022-11-21T12:18:33.708Z,951.35
2022-11-21T12:19:31.348Z,951.30
2022-11-21T12:20:31.257Z,951.26
2022-11-21T12:21:31.434Z,951.21
2022-11-21T12:22:31.234Z,951.17
2022-11-21T12:23:31.269Z,951.15
2022-11-21T12:24:31.113Z,951.15
2022-11-21T12:25:31.272Z,951.16
2022-11-21T12:26:31.050Z,951.09
2022-11-21T12:27:31.277Z,951.07
2022-11-21T12:28:30.975Z,951.02
2022-11-21T12:29:31.350Z,950.99
2022-11-21T12:30:30.900Z,950.95
2022-11-21T12:31:30.827Z,950.89